Time;durP1;ratioP1;P1;durP2;ratioP2;P2;SDS_P1;SDS_P2;PMS_P1;PMS_P2;Temp;Humidity;BMP_temperature;BMP_pressure;BME280_temperature;BME280_humidity;BME280_pressure;Samples;Min_cycle;Max_cycle;Signal;HPM_P1;HPM_P2
2023/12/15 00:00:33;;;;;;;;;;;-2.60;99.90;;;;;;5002411;28;19926;-60
2023/12/15 00:03:00;;;;;;;;;;;-2.60;99.90;;;;;;5005435;28;20033;-59
2023/12/15 00:05:26;;;;;;;;;;;-2.60;99.90;;;;;;5002106;28;19925;-61
2023/12/15 00:07:53;;;;;;;;;;;-2.60;99.90;;;;;;5002809;28;19926;-59
2023/12/15 00:10:20;;;;;;;;;;;-2.60;99.90;;;;;;5006805;28;20343;-58
2023/12/15 00:12:47;;;;;;;;;;;-2.50;99.90;;;;;;5000912;28;19930;-60
2023/12/15 00:15:14;;;;;;;;;;;-2.60;99.90;;;;;;5001099;28;19933;-60
2023/12/15 00:17:41;;;;;;;;;;;-2.50;99.90;;;;;;5005741;28;20024;-60
2023/12/15 00:20:08;;;;;;;;;;;-2.60;99.90;;;;;;4996469;28;19996;-59
2023/12/15 00:22:35;;;;;;;;;;;-2.60;99.90;;;;;;4997042;28;20373;-62
2023/12/15 00:25:02;;;;;;;;;;;-2.60;99.90;;;;;;5003434;28;19973;-58
2023/12/15 00:27:29;;;;;;;;;;;-2.60;99.90;;;;;;5000903;28;19967;-62
2023/12/15 00:29:56;;;;;;;;;;;-2.50;99.90;;;;;;5001617;28;19976;-62
2023/12/15 00:32:23;;;;;;;;;;;-2.50;99.90;;;;;;5004654;28;19961;-59
2023/12/15 00:34:52;;;;;;;;;;;-2.50;99.90;;;;;;5004619;28;19926;-62
2023/12/15 00:37:20;;;;;;;;;;;-2.50;99.90;;;;;;5002326;28;19959;-60
2023/12/15 00:39:47;;;;;;;;;;;-2.50;99.90;;;;;;5004197;28;20027;-59
2023/12/15 00:42:14;;;;;;;;;;;-2.50;99.90;;;;;;4999036;28;19934;-61
2023/12/15 00:44:41;;;;;;;;;;;-2.50;99.90;;;;;;4996919;28;20417;-61
2023/12/15 00:47:07;;;;;;;;;;;-2.50;99.90;;;;;;5001077;28;19992;-60
2023/12/15 00:49:34;;;;;;;;;;;-2.50;99.90;;;;;;5002694;28;19944;-59
2023/12/15 00:52:01;;;;;;;;;;;-2.50;99.90;;;;;;5000260;28;20378;-59
2023/12/15 00:54:28;;;;;;;;;;;-2.50;99.90;;;;;;4999690;28;20259;-59
2023/12/15 00:56:55;;;;;;;;;;;-2.50;99.90;;;;;;5001839;28;20330;-59
2023/12/15 00:59:21;;;;;;;;;;;-2.40;99.90;;;;;;4998381;28;19929;-62
2023/12/15 01:01:48;;;;;;;;;;;-2.40;99.90;;;;;;4994879;28;19972;-59
2023/12/15 01:04:15;;;;;;;;;;;-2.40;99.90;;;;;;4997721;28;20021;-59
2023/12/15 01:06:42;;;;;;;;;;;-2.50;99.90;;;;;;4998124;28;19929;-60
2023/12/15 01:09:09;;;;;;;;;;;-2.50;99.90;;;;;;5000288;28;20032;-59
2023/12/15 01:11:35;;;;;;;;;;;-2.50;99.90;;;;;;4997632;28;19929;-60
2023/12/15 01:14:02;;;;;;;;;;;-2.50;99.90;;;;;;5001716;28;19929;-62
2023/12/15 01:16:29;;;;;;;;;;;-2.50;99.90;;;;;;5000203;28;20746;-60
2023/12/15 01:18:56;;;;;;;;;;;-2.40;99.90;;;;;;5000033;28;19925;-62
2023/12/15 01:21:23;;;;;;;;;;;-2.50;99.90;;;;;;5001916;28;20457;-61
2023/12/15 01:23:50;;;;;;;;;;;-2.40;99.90;;;;;;5001038;28;19925;-60
2023/12/15 01:26:18;;;;;;;;;;;-2.40;99.90;;;;;;4997474;28;20489;-61
2023/12/15 01:28:45;;;;;;;;;;;-2.40;99.90;;;;;;5016993;28;20415;-62
2023/12/15 01:31:13;;;;;;;;;;;-2.40;99.90;;;;;;5000308;28;19933;-60
2023/12/15 01:33:40;;;;;;;;;;;-2.50;99.90;;;;;;4998467;28;20016;-59
2023/12/15 01:36:07;;;;;;;;;;;-2.50;99.90;;;;;;5001944;28;20024;-62
2023/12/15 01:38:34;;;;;;;;;;;-2.40;99.90;;;;;;5004054;28;20268;-59
2023/12/15 01:41:01;;;;;;;;;;;-2.40;99.90;;;;;;5003531;28;19932;-58
2023/12/15 01:43:28;;;;;;;;;;;-2.50;99.90;;;;;;4998744;28;19926;-59
2023/12/15 01:45:55;;;;;;;;;;;-2.40;99.90;;;;;;4999784;28;19955;-60
2023/12/15 01:48:34;;;;;;;;;;;-2.50;99.90;;;;;;5005167;28;20025;-58
2023/12/15 01:51:01;;;;;;;;;;;-2.50;99.90;;;;;;4991988;28;19930;-61
2023/12/15 01:53:28;;;;;;;;;;;-2.50;99.90;;;;;;4999031;28;19933;-60
2023/12/15 01:55:55;;;;;;;;;;;-2.50;99.90;;;;;;4998712;28;19926;-62
2023/12/15 01:58:22;;;;;;;;;;;-2.40;99.90;;;;;;5000653;28;19929;-61
2023/12/15 02:00:49;;;;;;;;;;;-2.40;99.90;;;;;;5001675;28;20011;-61
2023/12/15 02:03:17;;;;;;;;;;;-2.50;99.90;;;;;;5000747;28;19980;-62
2023/12/15 02:05:44;;;;;;;;;;;-2.40;99.90;;;;;;5002199;28;19934;-62
2023/12/15 02:08:11;;;;;;;;;;;-2.40;99.90;;;;;;5001645;28;19936;-61
2023/12/15 02:10:38;;;;;;;;;;;-2.40;99.90;;;;;;5005633;28;19930;-64
2023/12/15 02:13:05;;;;;;;;;;;-2.40;99.90;;;;;;5004711;28;19981;-65
2023/12/15 02:15:32;;;;;;;;;;;-2.40;99.90;;;;;;5001392;28;20681;-59
2023/12/15 02:17:59;;;;;;;;;;;-2.40;99.90;;;;;;5003783;28;19937;-66
2023/12/15 02:20:26;;;;;;;;;;;-2.40;99.90;;;;;;5007063;28;19926;-62
2023/12/15 02:22:53;;;;;;;;;;;-2.40;99.90;;;;;;5007858;28;20003;-59
2023/12/15 02:25:20;;;;;;;;;;;-2.50;99.90;;;;;;5006327;28;20028;-61
2023/12/15 02:27:47;;;;;;;;;;;-2.50;99.90;;;;;;5022735;28;20431;-63
2023/12/15 02:30:13;;;;;;;;;;;-2.50;99.90;;;;;;5003545;28;19992;-59
2023/12/15 02:32:40;;;;;;;;;;;-2.40;99.90;;;;;;5006019;28;19961;-64
2023/12/15 02:35:08;;;;;;;;;;;-2.40;99.90;;;;;;5006317;28;20311;-60
2023/12/15 02:37:34;;;;;;;;;;;-2.40;99.90;;;;;;5006409;28;20339;-59
2023/12/15 02:40:02;;;;;;;;;;;-2.40;99.90;;;;;;5005947;28;19929;-60
2023/12/15 02:42:28;;;;;;;;;;;-2.40;99.90;;;;;;5005239;28;20061;-62
2023/12/15 02:44:55;;;;;;;;;;;-2.40;99.90;;;;;;5001159;28;19932;-60
2023/12/15 02:47:22;;;;;;;;;;;-2.30;99.90;;;;;;5005431;28;19937;-60
2023/12/15 02:49:49;;;;;;;;;;;-2.30;99.90;;;;;;5004408;28;20012;-61
2023/12/15 02:52:16;;;;;;;;;;;-2.30;99.90;;;;;;5001889;28;19956;-60
2023/12/15 02:54:42;;;;;;;;;;;-2.40;99.90;;;;;;5003011;28;19929;-62
2023/12/15 02:57:09;;;;;;;;;;;-2.40;99.90;;;;;;4999627;28;19926;-59
2023/12/15 02:59:36;;;;;;;;;;;-2.40;99.90;;;;;;4996265;28;19926;-58
2023/12/15 03:02:03;;;;;;;;;;;-2.30;99.90;;;;;;4997391;28;20530;-59
2023/12/15 03:04:30;;;;;;;;;;;-2.30;99.90;;;;;;5000620;28;19936;-59
2023/12/15 03:06:57;;;;;;;;;;;-2.30;99.90;;;;;;5002299;28;19926;-59
2023/12/15 03:09:24;;;;;;;;;;;-2.30;99.90;;;;;;5003219;28;20445;-61
2023/12/15 03:11:51;;;;;;;;;;;-2.30;99.90;;;;;;5001874;28;19941;-62
2023/12/15 03:14:18;;;;;;;;;;;-2.30;99.90;;;;;;5001831;28;19984;-58
2023/12/15 03:16:45;;;;;;;;;;;-2.30;99.90;;;;;;4998462;28;20383;-62
2023/12/15 03:19:12;;;;;;;;;;;-2.30;99.90;;;;;;5005038;28;19929;-61
2023/12/15 03:21:39;;;;;;;;;;;-2.30;99.90;;;;;;5002367;28;19925;-60
2023/12/15 03:24:05;;;;;;;;;;;-2.30;99.90;;;;;;5000386;28;19957;-61
2023/12/15 03:26:32;;;;;;;;;;;-2.30;99.90;;;;;;5002459;28;20017;-61
2023/12/15 03:28:59;;;;;;;;;;;-2.30;99.90;;;;;;5002445;28;19934;-62
2023/12/15 03:31:26;;;;;;;;;;;-2.30;99.90;;;;;;5004168;28;19929;-58
2023/12/15 03:33:53;;;;;;;;;;;-2.30;99.90;;;;;;4999655;28;19983;-58
2023/12/15 03:36:19;;;;;;;;;;;-2.30;99.90;;;;;;5003803;28;19932;-62
2023/12/15 03:38:46;;;;;;;;;;;-2.30;99.90;;;;;;5032911;28;20319;-59
2023/12/15 03:41:13;;;;;;;;;;;-2.30;99.90;;;;;;5002699;28;19968;-59
2023/12/15 03:43:40;;;;;;;;;;;-2.40;99.90;;;;;;4996662;28;19930;-63
2023/12/15 03:46:07;;;;;;;;;;;-2.30;99.90;;;;;;4999868;28;19929;-58
2023/12/15 03:48:34;;;;;;;;;;;-2.30;99.90;;;;;;4998419;28;19929;-59
2023/12/15 03:51:00;;;;;;;;;;;-2.30;99.90;;;;;;4997763;28;19930;-61
2023/12/15 03:53:27;;;;;;;;;;;-2.30;99.90;;;;;;4996558;28;19933;-58
2023/12/15 03:55:54;;;;;;;;;;;-2.30;99.90;;;;;;4999810;28;19937;-60
2023/12/15 03:58:21;;;;;;;;;;;-2.30;99.90;;;;;;5000391;28;19925;-60
2023/12/15 04:00:48;;;;;;;;;;;-2.30;99.90;;;;;;5002871;28;19957;-59
2023/12/15 04:03:15;;;;;;;;;;;-2.30;99.90;;;;;;5000875;28;19929;-59
2023/12/15 04:05:41;;;;;;;;;;;-2.30;99.90;;;;;;5003590;28;19933;-61
2023/12/15 04:08:08;;;;;;;;;;;-2.30;99.90;;;;;;4999595;28;19929;-58
2023/12/15 04:10:35;;;;;;;;;;;-2.30;99.90;;;;;;4994365;28;19937;-61
2023/12/15 04:13:02;;;;;;;;;;;-2.30;99.90;;;;;;5007130;28;19925;-62
2023/12/15 04:15:29;;;;;;;;;;;-2.30;99.90;;;;;;4998747;28;19976;-66
2023/12/15 04:17:56;;;;;;;;;;;-2.30;99.90;;;;;;4996220;28;19936;-60
2023/12/15 04:20:22;;;;;;;;;;;-2.30;99.90;;;;;;4997912;28;19926;-60
2023/12/15 04:22:49;;;;;;;;;;;-2.30;99.90;;;;;;5001847;28;19925;-58
2023/12/15 04:25:16;;;;;;;;;;;-2.30;99.90;;;;;;5001866;28;19996;-58
2023/12/15 04:27:43;;;;;;;;;;;-2.30;99.90;;;;;;5003877;28;19925;-59
2023/12/15 04:30:10;;;;;;;;;;;-2.20;99.90;;;;;;5004300;28;19933;-60
2023/12/15 04:32:37;;;;;;;;;;;-2.20;99.90;;;;;;5000252;28;20687;-64
2023/12/15 04:35:05;;;;;;;;;;;-2.20;99.90;;;;;;5000022;28;19929;-62
2023/12/15 04:37:31;;;;;;;;;;;-2.20;99.90;;;;;;4995527;28;19972;-67
2023/12/15 04:39:58;;;;;;;;;;;-2.20;99.90;;;;;;4998882;28;19929;-62
2023/12/15 04:42:27;;;;;;;;;;;-2.20;99.90;;;;;;5017742;28;20633;-60
2023/12/15 04:44:55;;;;;;;;;;;-2.20;99.90;;;;;;5000855;28;20310;-58
2023/12/15 04:47:21;;;;;;;;;;;-2.20;99.90;;;;;;4999481;28;19926;-59
2023/12/15 04:49:48;;;;;;;;;;;-2.20;99.90;;;;;;5002189;28;20029;-60
2023/12/15 04:52:15;;;;;;;;;;;-2.20;99.90;;;;;;5000643;28;19953;-61
2023/12/15 04:54:42;;;;;;;;;;;-2.10;99.90;;;;;;5004597;28;20008;-63
2023/12/15 04:57:08;;;;;;;;;;;-2.10;99.90;;;;;;4998386;28;19988;-61
2023/12/15 04:59:39;;;;;;;;;;;-2.10;99.90;;;;;;5002223;28;19930;-60
2023/12/15 05:02:07;;;;;;;;;;;-2.10;99.90;;;;;;4993454;28;19930;-61
2023/12/15 05:04:34;;;;;;;;;;;-2.10;99.90;;;;;;4994266;28;19969;-58
2023/12/15 05:07:03;;;;;;;;;;;-2.10;99.90;;;;;;5001912;28;20566;-61
2023/12/15 05:09:30;;;;;;;;;;;-2.10;99.90;;;;;;4999553;28;19944;-59
2023/12/15 05:11:57;;;;;;;;;;;-2.10;99.90;;;;;;4999251;28;20031;-59
2023/12/15 05:14:24;;;;;;;;;;;-2.10;99.90;;;;;;4999877;28;20000;-59
2023/12/15 05:16:50;;;;;;;;;;;-2.10;99.90;;;;;;5010644;28;20406;-60
2023/12/15 05:19:17;;;;;;;;;;;-2.00;99.90;;;;;;4996554;28;19974;-60
2023/12/15 05:21:44;;;;;;;;;;;-2.00;99.90;;;;;;4999283;28;19925;-60
2023/12/15 05:24:11;;;;;;;;;;;-2.00;99.90;;;;;;4999661;28;20441;-60
2023/12/15 05:26:38;;;;;;;;;;;-2.00;99.90;;;;;;5003745;28;19957;-62
2023/12/15 05:29:05;;;;;;;;;;;-1.90;99.90;;;;;;4999840;28;20015;-62
2023/12/15 05:31:32;;;;;;;;;;;-1.90;99.90;;;;;;5000518;28;19933;-59
2023/12/15 05:33:58;;;;;;;;;;;-1.90;99.90;;;;;;5000835;28;19929;-61
2023/12/15 05:36:25;;;;;;;;;;;-1.90;99.90;;;;;;4998985;28;19932;-61
2023/12/15 05:38:53;;;;;;;;;;;-1.90;99.90;;;;;;4998738;28;19968;-60
2023/12/15 05:41:20;;;;;;;;;;;-1.90;99.90;;;;;;5000555;28;19930;-62
2023/12/15 05:43:46;;;;;;;;;;;-1.90;99.90;;;;;;4999029;28;20321;-58
2023/12/15 05:46:14;;;;;;;;;;;-1.90;99.90;;;;;;4996181;28;19954;-61
2023/12/15 05:48:41;;;;;;;;;;;-1.80;99.90;;;;;;4999073;28;19926;-64
2023/12/15 05:51:08;;;;;;;;;;;-1.80;99.90;;;;;;5006067;28;20582;-59
2023/12/15 05:53:35;;;;;;;;;;;-1.80;99.90;;;;;;5003048;28;19956;-61
2023/12/15 05:56:20;;;;;;;;;;;-1.80;99.90;;;;;;5005964;28;19940;-61
2023/12/15 05:58:49;;;;;;;;;;;-1.80;99.90;;;;;;5003710;28;20430;-60
2023/12/15 06:01:15;;;;;;;;;;;-1.80;99.90;;;;;;5007753;28;20403;-62
2023/12/15 06:03:42;;;;;;;;;;;-1.80;99.90;;;;;;5003614;28;19925;-59
2023/12/15 06:06:11;;;;;;;;;;;-1.70;99.90;;;;;;5007454;28;20084;-58
2023/12/15 06:08:39;;;;;;;;;;;-1.70;99.90;;;;;;5001061;28;19965;-62
2023/12/15 06:11:05;;;;;;;;;;;-1.70;99.90;;;;;;5002806;28;20036;-60
2023/12/15 06:13:32;;;;;;;;;;;-1.70;99.90;;;;;;5006174;28;19929;-60
2023/12/15 06:15:59;;;;;;;;;;;-1.70;99.90;;;;;;5010682;28;20020;-65
2023/12/15 06:18:26;;;;;;;;;;;-1.60;99.90;;;;;;5001205;28;20259;-61
2023/12/15 06:20:53;;;;;;;;;;;-1.60;99.90;;;;;;5004042;28;20600;-59
2023/12/15 06:23:21;;;;;;;;;;;-1.60;99.90;;;;;;5003165;28;20011;-65
2023/12/15 06:25:48;;;;;;;;;;;-1.60;99.90;;;;;;5004718;28;19937;-61
2023/12/15 06:28:14;;;;;;;;;;;-1.60;99.90;;;;;;5006691;28;20012;-61
2023/12/15 06:30:41;;;;;;;;;;;-1.50;99.90;;;;;;5005121;28;19972;-64
2023/12/15 06:33:08;;;;;;;;;;;-1.50;99.90;;;;;;5009173;28;19929;-59
2023/12/15 06:35:35;;;;;;;;;;;-1.50;99.90;;;;;;5003309;28;20048;-62
2023/12/15 06:38:02;;;;;;;;;;;-1.50;99.90;;;;;;5003146;28;20458;-59
2023/12/15 06:40:29;;;;;;;;;;;-1.50;99.90;;;;;;5003254;28;19972;-59
2023/12/15 06:42:56;;;;;;;;;;;-1.50;99.90;;;;;;5003287;28;20028;-59
2023/12/15 06:45:23;;;;;;;;;;;-1.50;99.90;;;;;;5002747;28;19992;-61
2023/12/15 06:47:49;;;;;;;;;;;-1.50;99.90;;;;;;4998106;28;19940;-66
2023/12/15 06:50:16;;;;;;;;;;;-1.40;99.90;;;;;;5005046;28;20392;-62
2023/12/15 06:52:44;;;;;;;;;;;-1.40;99.90;;;;;;5003169;28;19930;-62
2023/12/15 06:55:11;;;;;;;;;;;-1.40;99.90;;;;;;4999263;28;19934;-62
2023/12/15 06:57:38;;;;;;;;;;;-1.40;99.90;;;;;;5001290;28;19965;-63
2023/12/15 07:00:06;;;;;;;;;;;-1.40;99.90;;;;;;4999622;28;19925;-62
2023/12/15 07:02:34;;;;;;;;;;;-1.40;99.90;;;;;;5004602;28;20023;-59
2023/12/15 07:05:01;;;;;;;;;;;-1.40;99.90;;;;;;5002639;28;20714;-60
2023/12/15 07:07:28;;;;;;;;;;;-1.30;99.90;;;;;;5005983;28;19929;-68
2023/12/15 07:09:55;;;;;;;;;;;-1.30;99.90;;;;;;5005069;28;19929;-59
2023/12/15 07:12:22;;;;;;;;;;;-1.30;99.90;;;;;;5002579;28;19933;-60
2023/12/15 07:14:48;;;;;;;;;;;-1.20;99.90;;;;;;5006025;28;19933;-63
2023/12/15 07:17:15;;;;;;;;;;;-1.20;99.90;;;;;;5008009;28;19929;-60
2023/12/15 07:19:42;;;;;;;;;;;-1.10;99.90;;;;;;4998837;28;19929;-63
2023/12/15 07:22:09;;;;;;;;;;;-1.10;99.90;;;;;;5006612;28;20013;-60
2023/12/15 07:24:36;;;;;;;;;;;-1.10;99.90;;;;;;5000522;28;19929;-60
2023/12/15 07:27:04;;;;;;;;;;;-1.10;99.90;;;;;;5004352;28;20372;-61
2023/12/15 07:29:31;;;;;;;;;;;-1.10;99.90;;;;;;5002633;28;19930;-62
2023/12/15 07:31:58;;;;;;;;;;;-1.10;99.90;;;;;;5001454;28;19929;-59
2023/12/15 07:34:25;;;;;;;;;;;-1.10;99.90;;;;;;4997447;28;19929;-60
2023/12/15 07:36:51;;;;;;;;;;;-1.10;99.90;;;;;;5005100;28;19929;-59
2023/12/15 07:39:21;;;;;;;;;;;-1.00;99.90;;;;;;5005040;28;19929;-58
2023/12/15 07:41:48;;;;;;;;;;;-1.00;99.90;;;;;;5000899;28;20566;-60
2023/12/15 07:44:15;;;;;;;;;;;-1.00;99.90;;;;;;4999924;28;19929;-59
2023/12/15 07:46:43;;;;;;;;;;;-1.00;99.90;;;;;;4999176;28;19953;-59
2023/12/15 07:49:10;;;;;;;;;;;-1.00;99.90;;;;;;5001698;28;20020;-59
2023/12/15 07:51:37;;;;;;;;;;;-0.90;99.90;;;;;;5004110;28;19976;-61
2023/12/15 07:54:04;;;;;;;;;;;-0.90;99.90;;;;;;5002765;28;19933;-59
2023/12/15 07:56:31;;;;;;;;;;;-0.90;99.90;;;;;;5003115;28;19941;-59
2023/12/15 07:58:57;;;;;;;;;;;-0.90;99.90;;;;;;5000350;28;20363;-61
2023/12/15 08:01:24;;;;;;;;;;;-0.90;99.90;;;;;;5005531;28;20359;-59
2023/12/15 08:03:51;;;;;;;;;;;-0.80;99.90;;;;;;5004090;28;19932;-60
2023/12/15 08:06:19;;;;;;;;;;;-0.80;99.90;;;;;;5006124;28;20596;-62
2023/12/15 08:08:46;;;;;;;;;;;-0.80;99.90;;;;;;4998833;28;19929;-60
2023/12/15 08:11:13;;;;;;;;;;;-0.70;99.90;;;;;;5002895;28;19933;-59
2023/12/15 08:13:40;;;;;;;;;;;-0.70;99.90;;;;;;5005724;28;20303;-60
2023/12/15 08:16:08;;;;;;;;;;;-0.70;99.90;;;;;;5002546;28;21004;-59
2023/12/15 08:18:41;;;;;;;;;;;-0.70;99.90;;;;;;5000270;28;19926;-62
2023/12/15 08:21:08;;;;;;;;;;;-0.60;99.90;;;;;;5004944;28;19965;-60
2023/12/15 08:23:35;;;;;;;;;;;-0.60;99.90;;;;;;5001746;28;20261;-59
2023/12/15 08:26:02;;;;;;;;;;;-0.60;99.90;;;;;;5002457;28;19930;-65
2023/12/15 08:28:29;;;;;;;;;;;-0.60;99.90;;;;;;4994510;28;20025;-60
2023/12/15 08:30:56;;;;;;;;;;;-0.60;99.90;;;;;;4998812;28;19984;-63
2023/12/15 08:33:23;;;;;;;;;;;-0.60;99.90;;;;;;5002641;28;19933;-60
2023/12/15 08:35:50;;;;;;;;;;;-0.50;99.90;;;;;;4999842;28;19983;-63
2023/12/15 08:38:17;;;;;;;;;;;-0.50;99.90;;;;;;5004124;28;19929;-61
2023/12/15 08:40:45;;;;;;;;;;;-0.50;99.90;;;;;;5002192;28;20713;-64
2023/12/15 08:43:13;;;;;;;;;;;-0.50;99.90;;;;;;5006001;28;20343;-63
2023/12/15 08:45:40;;;;;;;;;;;-0.50;99.90;;;;;;5003270;28;19934;-64
2023/12/15 08:48:08;;;;;;;;;;;-0.40;99.90;;;;;;5006907;28;19929;-60
2023/12/15 08:50:35;;;;;;;;;;;-0.40;99.90;;;;;;5001884;28;19941;-60
2023/12/15 08:53:02;;;;;;;;;;;-0.30;99.90;;;;;;4996123;28;19934;-60
2023/12/15 08:55:29;;;;;;;;;;;-0.30;99.90;;;;;;4995254;28;19937;-61
2023/12/15 08:57:56;;;;;;;;;;;-0.30;99.90;;;;;;4998310;28;19948;-60
2023/12/15 09:00:23;;;;;;;;;;;-0.30;99.90;;;;;;4997627;28;19925;-60
2023/12/15 09:02:52;;;;;;;;;;;-0.20;99.90;;;;;;5003038;28;19992;-63
2023/12/15 09:05:23;;;;;;;;;;;-0.20;99.90;;;;;;5008440;28;19941;-60
2023/12/15 09:08:10;;;;;;;;;;;-0.20;99.90;;;;;;5002012;28;19931;-63
2023/12/15 09:10:43;;;;;;;;;;;-0.10;99.90;;;;;;5001911;28;20367;-58
2023/12/15 09:13:10;;;;;;;;;;;-0.10;99.90;;;;;;5001491;28;20020;-61
2023/12/15 09:15:37;;;;;;;;;;;-0.10;99.90;;;;;;5000058;28;19972;-60
2023/12/15 09:18:04;;;;;;;;;;;-0.10;99.90;;;;;;5003051;28;19926;-59
2023/12/15 09:20:34;;;;;;;;;;;-0.10;99.90;;;;;;5000550;28;19933;-60
2023/12/15 09:23:05;;;;;;;;;;;-0.10;99.90;;;;;;4999346;28;19929;-61
2023/12/15 09:25:32;;;;;;;;;;;0.00;99.90;;;;;;5001350;28;19946;-61
2023/12/15 09:27:59;;;;;;;;;;;0.00;99.90;;;;;;5003669;28;20023;-59
2023/12/15 09:30:26;;;;;;;;;;;0.00;99.90;;;;;;5001193;28;19930;-60
2023/12/15 09:32:52;;;;;;;;;;;0.00;99.90;;;;;;5003927;28;19956;-62
2023/12/15 09:35:19;;;;;;;;;;;0.00;99.90;;;;;;5020434;28;19933;-60
2023/12/15 09:37:46;;;;;;;;;;;0.10;99.90;;;;;;5001423;28;19930;-60
2023/12/15 09:40:14;;;;;;;;;;;0.10;99.90;;;;;;4998390;28;19969;-63
2023/12/15 09:42:40;;;;;;;;;;;0.10;99.90;;;;;;5001064;28;20303;-60
2023/12/15 09:45:08;;;;;;;;;;;0.20;99.90;;;;;;4992842;28;19930;-61
2023/12/15 09:47:36;;;;;;;;;;;0.10;99.90;;;;;;4998246;28;19936;-59
2023/12/15 09:50:04;;;;;;;;;;;0.20;99.90;;;;;;5001237;28;19934;-60
2023/12/15 09:52:32;;;;;;;;;;;0.20;99.90;;;;;;5011210;28;20012;-66
2023/12/15 09:54:59;;;;;;;;;;;0.20;99.90;;;;;;5003236;28;20020;-59
2023/12/15 09:57:26;;;;;;;;;;;0.20;99.90;;;;;;5001663;28;20020;-60
2023/12/15 09:59:53;;;;;;;;;;;0.20;99.90;;;;;;4997931;28;19926;-65
2023/12/15 10:02:20;;;;;;;;;;;0.20;99.90;;;;;;5003404;28;19933;-64
2023/12/15 10:04:48;;;;;;;;;;;0.20;99.90;;;;;;5002636;28;20395;-59
2023/12/15 10:07:15;;;;;;;;;;;0.20;99.90;;;;;;4995402;28;19937;-66
2023/12/15 10:09:42;;;;;;;;;;;0.20;99.90;;;;;;4998071;28;19933;-62
2023/12/15 10:12:09;;;;;;;;;;;0.20;99.90;;;;;;5000384;28;19937;-59
2023/12/15 10:14:37;;;;;;;;;;;0.10;99.90;;;;;;5000001;28;20024;-60
2023/12/15 10:17:11;;;;;;;;;;;0.10;99.90;;;;;;5002677;28;19925;-60
2023/12/15 10:19:40;;;;;;;;;;;0.20;99.90;;;;;;5001780;28;19984;-60
2023/12/15 10:22:07;;;;;;;;;;;0.20;99.90;;;;;;5001674;28;20415;-60
2023/12/15 10:24:35;;;;;;;;;;;0.20;99.90;;;;;;5002979;28;20387;-60
2023/12/15 10:27:03;;;;;;;;;;;0.20;99.90;;;;;;5000104;28;19926;-60
2023/12/15 10:29:30;;;;;;;;;;;0.20;99.90;;;;;;4998018;28;20020;-59
2023/12/15 10:31:58;;;;;;;;;;;0.20;99.90;;;;;;4995784;28;20510;-59
2023/12/15 10:34:26;;;;;;;;;;;0.20;99.90;;;;;;5000643;28;19929;-63
2023/12/15 10:36:53;;;;;;;;;;;0.30;99.90;;;;;;5001015;28;19926;-60
2023/12/15 10:39:21;;;;;;;;;;;0.30;99.90;;;;;;5005348;28;19945;-59
2023/12/15 10:41:49;;;;;;;;;;;0.30;99.90;;;;;;5006195;28;19933;-60
2023/12/15 10:44:16;;;;;;;;;;;0.30;99.90;;;;;;5004070;28;19975;-65
2023/12/15 10:46:44;;;;;;;;;;;0.30;99.90;;;;;;5002378;28;19936;-61
2023/12/15 10:49:11;;;;;;;;;;;0.30;99.90;;;;;;5018596;28;20379;-63
2023/12/15 10:51:38;;;;;;;;;;;0.30;99.90;;;;;;4999557;28;19930;-62
2023/12/15 10:54:05;;;;;;;;;;;0.40;99.90;;;;;;5005361;28;19976;-61
2023/12/15 10:56:32;;;;;;;;;;;0.40;99.90;;;;;;4998675;28;19934;-59
2023/12/15 10:58:59;;;;;;;;;;;0.40;99.90;;;;;;5005464;28;19929;-61
2023/12/15 11:01:27;;;;;;;;;;;0.40;99.90;;;;;;5003431;28;19937;-62
2023/12/15 11:03:54;;;;;;;;;;;0.40;99.90;;;;;;5003834;28;20379;-60
2023/12/15 11:06:27;;;;;;;;;;;0.40;99.90;;;;;;5003484;28;20057;-59
2023/12/15 11:08:58;;;;;;;;;;;0.50;99.90;;;;;;5004236;28;19925;-61
2023/12/15 11:11:25;;;;;;;;;;;0.60;99.90;;;;;;5000365;28;19929;-64
2023/12/15 11:13:53;;;;;;;;;;;0.70;99.90;;;;;;5007251;28;19977;-59
2023/12/15 11:16:23;;;;;;;;;;;0.70;99.90;;;;;;4996914;28;20025;-61
2023/12/15 11:18:54;;;;;;;;;;;0.80;99.90;;;;;;4998074;28;20036;-63
2023/12/15 11:21:21;;;;;;;;;;;0.80;99.90;;;;;;5005247;28;19947;-60
2023/12/15 11:23:48;;;;;;;;;;;0.70;99.90;;;;;;4998934;28;19929;-60
2023/12/15 11:26:25;;;;;;;;;;;0.70;99.90;;;;;;5003425;28;19929;-59
2023/12/15 11:28:55;;;;;;;;;;;0.70;99.90;;;;;;5001368;28;19976;-59
2023/12/15 11:31:23;;;;;;;;;;;0.70;99.90;;;;;;5002098;28;20020;-65
2023/12/15 11:33:50;;;;;;;;;;;0.70;99.90;;;;;;5000929;28;20343;-60
2023/12/15 11:36:17;;;;;;;;;;;0.70;99.90;;;;;;5002143;28;19926;-61
2023/12/15 11:38:50;;;;;;;;;;;0.70;99.90;;;;;;5003751;28;19965;-65
2023/12/15 11:41:18;;;;;;;;;;;0.70;99.90;;;;;;5000341;28;19926;-58
2023/12/15 11:43:45;;;;;;;;;;;0.80;99.90;;;;;;5000495;28;19964;-60
2023/12/15 11:46:12;;;;;;;;;;;0.80;99.90;;;;;;5005738;28;19930;-59
2023/12/15 11:48:40;;;;;;;;;;;0.80;99.90;;;;;;5004193;28;19999;-61
2023/12/15 11:51:11;;;;;;;;;;;0.80;99.90;;;;;;5002907;28;19944;-59
2023/12/15 11:53:41;;;;;;;;;;;0.80;99.90;;;;;;4995710;28;19930;-59
2023/12/15 11:56:09;;;;;;;;;;;0.80;99.90;;;;;;4996217;28;19972;-59
2023/12/15 11:58:36;;;;;;;;;;;0.90;99.90;;;;;;5002694;28;19988;-59
2023/12/15 12:01:03;;;;;;;;;;;0.90;99.90;;;;;;4999776;28;19940;-62
2023/12/15 12:03:33;;;;;;;;;;;0.90;99.90;;;;;;5002615;28;19925;-60
2023/12/15 12:06:05;;;;;;;;;;;0.90;99.90;;;;;;5001563;28;20032;-61
2023/12/15 12:08:33;;;;;;;;;;;0.90;99.90;;;;;;4999849;28;19933;-61
2023/12/15 12:11:00;;;;;;;;;;;0.90;99.90;;;;;;5003159;28;20490;-60
2023/12/15 12:13:31;;;;;;;;;;;0.90;99.90;;;;;;5004767;28;19926;-60
2023/12/15 12:15:59;;;;;;;;;;;0.90;99.90;;;;;;5016751;28;20347;-59
2023/12/15 12:18:26;;;;;;;;;;;0.90;99.90;;;;;;5004011;28;19930;-58
2023/12/15 12:20:54;;;;;;;;;;;0.90;99.90;;;;;;5003158;28;20029;-60
2023/12/15 12:23:27;;;;;;;;;;;0.90;99.90;;;;;;4996605;28;19930;-59
2023/12/15 12:26:08;;;;;;;;;;;0.90;99.90;;;;;;5001952;28;19949;-59
2023/12/15 12:28:48;;;;;;;;;;;0.90;99.90;;;;;;4997930;28;20749;-61
2023/12/15 12:31:16;;;;;;;;;;;0.90;99.90;;;;;;5003182;28;19976;-60
2023/12/15 12:33:43;;;;;;;;;;;0.90;99.90;;;;;;4996840;28;19926;-62
2023/12/15 12:36:10;;;;;;;;;;;0.90;99.90;;;;;;5001874;28;19925;-59
2023/12/15 12:38:37;;;;;;;;;;;0.90;99.90;;;;;;5000615;28;19937;-61
2023/12/15 12:41:05;;;;;;;;;;;0.90;99.90;;;;;;5001056;28;21369;-60
2023/12/15 12:43:33;;;;;;;;;;;0.90;99.90;;;;;;5002892;28;20458;-59
2023/12/15 12:46:00;;;;;;;;;;;0.90;99.90;;;;;;5002142;28;19926;-63
2023/12/15 12:48:28;;;;;;;;;;;0.90;99.90;;;;;;5004121;28;19925;-58
2023/12/15 12:50:55;;;;;;;;;;;0.90;99.90;;;;;;5002314;28;19925;-59
2023/12/15 12:53:22;;;;;;;;;;;0.90;99.90;;;;;;4996836;28;20509;-65
2023/12/15 12:55:49;;;;;;;;;;;1.00;99.90;;;;;;5000079;28;19932;-59
2023/12/15 12:58:16;;;;;;;;;;;1.00;99.90;;;;;;5002811;28;20405;-58
2023/12/15 13:00:43;;;;;;;;;;;1.00;99.90;;;;;;5000042;28;20043;-61
2023/12/15 13:03:10;;;;;;;;;;;1.00;99.90;;;;;;5001047;28;19929;-59
2023/12/15 13:05:37;;;;;;;;;;;1.00;99.90;;;;;;4999974;28;20284;-61
2023/12/15 13:08:04;;;;;;;;;;;1.00;99.90;;;;;;5001443;28;19934;-65
2023/12/15 13:10:31;;;;;;;;;;;1.00;99.90;;;;;;5004305;28;19926;-59
2023/12/15 13:12:58;;;;;;;;;;;1.00;99.90;;;;;;5003224;28;19979;-58
2023/12/15 13:15:25;;;;;;;;;;;1.00;99.90;;;;;;4998713;28;19929;-61
2023/12/15 13:17:59;;;;;;;;;;;1.10;99.90;;;;;;4997175;28;19934;-60
2023/12/15 13:20:26;;;;;;;;;;;1.10;99.90;;;;;;5000967;28;19933;-59
2023/12/15 13:22:53;;;;;;;;;;;1.10;99.90;;;;;;4998977;28;19965;-61
2023/12/15 13:25:21;;;;;;;;;;;1.10;99.90;;;;;;5001850;28;20008;-59
2023/12/15 13:27:48;;;;;;;;;;;1.10;99.90;;;;;;5001323;28;19930;-63
2023/12/15 13:30:15;;;;;;;;;;;1.20;99.90;;;;;;5004728;28;19979;-61
2023/12/15 13:32:42;;;;;;;;;;;1.20;99.90;;;;;;4998761;28;19929;-60
2023/12/15 13:35:10;;;;;;;;;;;1.20;99.90;;;;;;4996482;28;19930;-62
2023/12/15 13:37:37;;;;;;;;;;;1.20;99.90;;;;;;4999416;28;19929;-61
2023/12/15 13:40:05;;;;;;;;;;;1.20;99.90;;;;;;5000644;28;19959;-60
2023/12/15 13:42:32;;;;;;;;;;;1.20;99.90;;;;;;5005308;28;20351;-60
2023/12/15 13:44:59;;;;;;;;;;;1.30;99.90;;;;;;5000722;28;19987;-60
2023/12/15 13:47:26;;;;;;;;;;;1.30;99.90;;;;;;5002210;28;20388;-59
2023/12/15 13:49:53;;;;;;;;;;;1.30;99.90;;;;;;5001969;28;20025;-59
2023/12/15 13:52:19;;;;;;;;;;;1.30;99.90;;;;;;4999683;28;19976;-62
2023/12/15 13:54:47;;;;;;;;;;;1.40;99.90;;;;;;5003980;28;19933;-59
2023/12/15 13:57:14;;;;;;;;;;;1.40;99.90;;;;;;5002057;28;20011;-59
2023/12/15 13:59:41;;;;;;;;;;;1.40;99.90;;;;;;5001687;28;19929;-64
2023/12/15 14:02:08;;;;;;;;;;;1.30;99.90;;;;;;5002036;28;19933;-61
2023/12/15 14:04:35;;;;;;;;;;;1.40;99.90;;;;;;4997229;28;20398;-67
2023/12/15 14:07:04;;;;;;;;;;;1.40;99.90;;;;;;5005159;28;19953;-65
2023/12/15 14:09:31;;;;;;;;;;;1.40;99.90;;;;;;5004020;28;19955;-61
2023/12/15 14:11:57;;;;;;;;;;;1.40;99.90;;;;;;5006562;28;20256;-60
2023/12/15 14:14:24;;;;;;;;;;;1.50;99.90;;;;;;5001453;28;20408;-62
2023/12/15 14:16:51;;;;;;;;;;;1.50;99.90;;;;;;5002881;28;20012;-63
2023/12/15 14:19:18;;;;;;;;;;;1.60;99.90;;;;;;5004482;28;20323;-59
2023/12/15 14:21:46;;;;;;;;;;;1.60;99.90;;;;;;5001737;28;19926;-65